sensor_id;sensor_type;location;lat;lon;timestamp;pressure;altitude;pressure_sealevel;temperature;humidity
6208;BME280;3137;51.550;7.060;2023-05-16T00:01:22;77212.28;;;-145.94;70.70
6208;BME280;3137;51.550;7.060;2023-05-16T00:03:50;77224.50;;;-145.94;70.72
6208;BME280;3137;51.550;7.060;2023-05-16T00:06:16;77234.69;;;-145.94;70.66
6208;BME280;3137;51.550;7.060;2023-05-16T00:08:43;77230.63;;;-145.94;71.02
6208;BME280;3137;51.550;7.060;2023-05-16T00:11:09;77236.75;;;-145.94;70.85
6208;BME280;3137;51.550;7.060;2023-05-16T00:13:35;77240.81;;;-145.94;70.84
6208;BME280;3137;51.550;7.060;2023-05-16T00:16:02;77242.88;;;-145.94;71.03
6208;BME280;3137;51.550;7.060;2023-05-16T00:18:30;77259.19;;;-145.94;70.99
6208;BME280;3137;51.550;7.060;2023-05-16T00:20:56;77257.13;;;-145.94;70.84
6208;BME280;3137;51.550;7.060;2023-05-16T00:23:23;77240.81;;;-145.94;70.81
6208;BME280;3137;51.550;7.060;2023-05-16T00:25:49;77259.19;;;-145.94;70.57
6208;BME280;3137;51.550;7.060;2023-05-16T00:28:16;77263.25;;;-145.94;70.52
6208;BME280;3137;51.550;7.060;2023-05-16T00:30:42;77267.34;;;-145.94;70.79
6208;BME280;3137;51.550;7.060;2023-05-16T00:33:08;77267.34;;;-145.94;70.89
6208;BME280;3137;51.550;7.060;2023-05-16T00:35:35;77263.25;;;-145.94;70.72
6208;BME280;3137;51.550;7.060;2023-05-16T00:38:02;77267.34;;;-145.94;70.67
6208;BME280;3137;51.550;7.060;2023-05-16T00:40:28;77275.50;;;-145.94;70.50
6208;BME280;3137;51.550;7.060;2023-05-16T00:42:55;77279.56;;;-145.94;70.63
6208;BME280;3137;51.550;7.060;2023-05-16T00:45:21;77285.69;;;-145.94;70.57
6208;BME280;3137;51.550;7.060;2023-05-16T00:47:47;77289.78;;;-145.94;70.66
6208;BME280;3137;51.550;7.060;2023-05-16T00:50:14;77302.00;;;-145.94;70.88
6208;BME280;3137;51.550;7.060;2023-05-16T00:52:42;77299.97;;;-145.94;70.96
6208;BME280;3137;51.550;7.060;2023-05-16T00:55:08;77310.16;;;-145.94;70.78
6208;BME280;3137;51.550;7.060;2023-05-16T00:57:39;77312.19;;;-145.94;70.90
6208;BME280;3137;51.550;7.060;2023-05-16T01:00:09;77340.75;;;-145.94;70.48
6208;BME280;3137;51.550;7.060;2023-05-16T01:02:35;77353.00;;;-145.94;70.68
6208;BME280;3137;51.550;7.060;2023-05-16T01:05:03;77361.16;;;-145.94;70.52
6208;BME280;3137;51.550;7.060;2023-05-16T01:07:36;77369.31;;;-145.94;70.61
6208;BME280;3137;51.550;7.060;2023-05-16T01:10:04;77387.66;;;-145.94;70.66
6208;BME280;3137;51.550;7.060;2023-05-16T01:12:44;77393.78;;;-145.94;70.72
6208;BME280;3137;51.550;7.060;2023-05-16T01:15:21;77403.97;;;-145.94;70.63
6208;BME280;3137;51.550;7.060;2023-05-16T01:18:17;77416.22;;;-145.94;70.63
6208;BME280;3137;51.550;7.060;2023-05-16T01:20:55;77426.41;;;-145.94;70.83
6208;BME280;3137;51.550;7.060;2023-05-16T01:26:16;77442.72;;;-145.94;70.42
6208;BME280;3137;51.550;7.060;2023-05-16T01:28:48;77448.84;;;-145.94;70.49
6208;BME280;3137;51.550;7.060;2023-05-16T01:31:17;77450.88;;;-145.94;70.44
6208;BME280;3137;51.550;7.060;2023-05-16T01:33:44;77446.81;;;-145.94;70.50
6208;BME280;3137;51.550;7.060;2023-05-16T01:36:23;77444.75;;;-145.94;70.46
6208;BME280;3137;51.550;7.060;2023-05-16T01:39:00;77465.16;;;-145.94;70.20
6208;BME280;3137;51.550;7.060;2023-05-16T01:41:54;77477.41;;;-145.94;70.09
6208;BME280;3137;51.550;7.060;2023-05-16T01:44:35;77487.59;;;-145.94;69.98
6208;BME280;3137;51.550;7.060;2023-05-16T01:47:07;77483.50;;;-145.94;69.85
6208;BME280;3137;51.550;7.060;2023-05-16T01:49:39;77489.63;;;-145.94;69.91
6208;BME280;3137;51.550;7.060;2023-05-16T01:52:14;77491.66;;;-145.94;69.48
6208;BME280;3137;51.550;7.060;2023-05-16T01:54:44;77501.88;;;-145.94;69.61
6208;BME280;3137;51.550;7.060;2023-05-16T01:57:11;77499.84;;;-145.94;69.59
6208;BME280;3137;51.550;7.060;2023-05-16T01:59:39;77505.94;;;-145.94;69.32
6208;BME280;3137;51.550;7.060;2023-05-16T02:02:08;77499.84;;;-145.94;69.41
6208;BME280;3137;51.550;7.060;2023-05-16T02:04:36;77503.91;;;-145.94;69.67
6208;BME280;3137;51.550;7.060;2023-05-16T02:07:03;77508.00;;;-145.94;69.68
6208;BME280;3137;51.550;7.060;2023-05-16T02:09:29;77503.91;;;-145.94;69.78
6208;BME280;3137;51.550;7.060;2023-05-16T02:11:56;77512.06;;;-145.94;69.73
6208;BME280;3137;51.550;7.060;2023-05-16T02:14:23;77508.00;;;-145.94;69.80
6208;BME280;3137;51.550;7.060;2023-05-16T02:16:51;77512.06;;;-145.94;69.97
6208;BME280;3137;51.550;7.060;2023-05-16T02:19:17;77501.88;;;-145.94;69.97
6208;BME280;3137;51.550;7.060;2023-05-16T02:21:44;77508.00;;;-145.94;69.80
6208;BME280;3137;51.550;7.060;2023-05-16T02:24:10;77503.91;;;-145.94;70.05
6208;BME280;3137;51.550;7.060;2023-05-16T02:26:36;77505.94;;;-145.94;70.02
6208;BME280;3137;51.550;7.060;2023-05-16T02:29:03;77501.88;;;-145.94;69.92
6208;BME280;3137;51.550;7.060;2023-05-16T02:31:31;77499.84;;;-145.94;69.73
6208;BME280;3137;51.550;7.060;2023-05-16T02:33:58;77495.75;;;-145.94;69.54
6208;BME280;3137;51.550;7.060;2023-05-16T02:36:25;77499.84;;;-145.94;69.28
6208;BME280;3137;51.550;7.060;2023-05-16T02:38:52;77514.09;;;-145.94;69.02
6208;BME280;3137;51.550;7.060;2023-05-16T02:41:20;77520.22;;;-145.94;69.23
6208;BME280;3137;51.550;7.060;2023-05-16T02:43:47;77528.38;;;-145.94;69.41
6208;BME280;3137;51.550;7.060;2023-05-16T02:46:25;77532.47;;;-145.94;69.22
6208;BME280;3137;51.550;7.060;2023-05-16T02:48:53;77530.44;;;-145.94;69.15
6208;BME280;3137;51.550;7.060;2023-05-16T02:51:20;77536.53;;;-145.94;69.19
6208;BME280;3137;51.550;7.060;2023-05-16T02:53:48;77538.59;;;-145.94;69.24
6208;BME280;3137;51.550;7.060;2023-05-16T02:56:15;77544.69;;;-145.94;69.22
6208;BME280;3137;51.550;7.060;2023-05-16T02:58:42;77548.78;;;-145.94;69.18
6208;BME280;3137;51.550;7.060;2023-05-16T03:01:08;77548.78;;;-145.94;69.24
6208;BME280;3137;51.550;7.060;2023-05-16T03:03:36;77546.75;;;-145.94;69.08
6208;BME280;3137;51.550;7.060;2023-05-16T03:06:03;77552.84;;;-145.94;68.91
6208;BME280;3137;51.550;7.060;2023-05-16T03:08:31;77558.97;;;-145.94;68.83
6208;BME280;3137;51.550;7.060;2023-05-16T03:10:57;77556.94;;;-145.94;68.65
6208;BME280;3137;51.550;7.060;2023-05-16T03:13:24;77571.22;;;-145.94;68.50
6208;BME280;3137;51.550;7.060;2023-05-16T03:15:51;77573.25;;;-145.94;68.28
6208;BME280;3137;51.550;7.060;2023-05-16T03:18:18;77585.50;;;-145.94;68.39
6208;BME280;3137;51.550;7.060;2023-05-16T03:20:45;77589.56;;;-145.94;68.24
6208;BME280;3137;51.550;7.060;2023-05-16T03:23:11;77589.56;;;-145.94;67.88
6208;BME280;3137;51.550;7.060;2023-05-16T03:25:38;77614.03;;;-145.94;67.75
6208;BME280;3137;51.550;7.060;2023-05-16T03:28:05;77609.97;;;-145.94;67.72
6208;BME280;3137;51.550;7.060;2023-05-16T03:30:33;77616.09;;;-145.94;67.90
6208;BME280;3137;51.550;7.060;2023-05-16T03:33:00;77618.13;;;-145.94;67.52
6208;BME280;3137;51.550;7.060;2023-05-16T03:35:27;77614.03;;;-145.94;67.73
6208;BME280;3137;51.550;7.060;2023-05-16T03:37:54;77614.03;;;-145.94;67.62
6208;BME280;3137;51.550;7.060;2023-05-16T03:40:20;77620.16;;;-145.94;67.30
6208;BME280;3137;51.550;7.060;2023-05-16T03:42:47;77632.41;;;-145.94;66.74
6208;BME280;3137;51.550;7.060;2023-05-16T03:45:13;77640.56;;;-145.94;66.65
6208;BME280;3137;51.550;7.060;2023-05-16T03:47:40;77646.69;;;-145.94;66.77
6208;BME280;3137;51.550;7.060;2023-05-16T03:50:07;77658.91;;;-145.94;66.48
6208;BME280;3137;51.550;7.060;2023-05-16T03:52:33;77656.88;;;-145.94;66.71
6208;BME280;3137;51.550;7.060;2023-05-16T03:55:00;77660.97;;;-145.94;66.51
6208;BME280;3137;51.550;7.060;2023-05-16T03:57:30;77665.03;;;-145.94;67.11
6208;BME280;3137;51.550;7.060;2023-05-16T03:59:57;77675.22;;;-145.94;66.64
6208;BME280;3137;51.550;7.060;2023-05-16T04:02:24;77685.44;;;-145.94;67.18
6208;BME280;3137;51.550;7.060;2023-05-16T04:04:51;77689.50;;;-145.94;67.01
6208;BME280;3137;51.550;7.060;2023-05-16T04:07:17;77693.59;;;-145.94;66.90
6208;BME280;3137;51.550;7.060;2023-05-16T04:09:44;77697.66;;;-145.94;67.11
6208;BME280;3137;51.550;7.060;2023-05-16T04:12:10;77703.78;;;-145.94;67.23
6208;BME280;3137;51.550;7.060;2023-05-16T04:14:36;77711.94;;;-145.94;66.97
6208;BME280;3137;51.550;7.060;2023-05-16T04:17:03;77705.81;;;-145.94;67.11
6208;BME280;3137;51.550;7.060;2023-05-16T04:19:30;77711.94;;;-145.94;67.42
6208;BME280;3137;51.550;7.060;2023-05-16T04:21:56;77709.91;;;-145.94;67.14
6208;BME280;3137;51.550;7.060;2023-05-16T04:24:23;77711.94;;;-145.94;67.12
6208;BME280;3137;51.550;7.060;2023-05-16T04:26:51;77724.19;;;-145.94;67.01
6208;BME280;3137;51.550;7.060;2023-05-16T04:29:18;77732.34;;;-145.94;66.79
6208;BME280;3137;51.550;7.060;2023-05-16T04:31:44;77736.44;;;-145.94;66.74
6208;BME280;3137;51.550;7.060;2023-05-16T04:34:11;77742.53;;;-145.94;66.67
6208;BME280;3137;51.550;7.060;2023-05-16T04:36:38;77738.47;;;-145.94;67.00
6208;BME280;3137;51.550;7.060;2023-05-16T04:39:04;77740.50;;;-145.94;67.10
6208;BME280;3137;51.550;7.060;2023-05-16T04:41:31;77750.69;;;-145.94;66.86
6208;BME280;3137;51.550;7.060;2023-05-16T04:44:00;77754.78;;;-145.94;66.73
6208;BME280;3137;51.550;7.060;2023-05-16T04:46:27;77760.91;;;-145.94;66.75
6208;BME280;3137;51.550;7.060;2023-05-16T04:48:54;77754.78;;;-145.94;66.50
6208;BME280;3137;51.550;7.060;2023-05-16T04:51:20;77760.91;;;-145.94;66.79
6208;BME280;3137;51.550;7.060;2023-05-16T04:53:47;77752.75;;;-145.94;66.67
6208;BME280;3137;51.550;7.060;2023-05-16T04:56:13;77756.81;;;-145.94;66.95
6208;BME280;3137;51.550;7.060;2023-05-16T04:58:40;77750.69;;;-145.94;66.68
6208;BME280;3137;51.550;7.060;2023-05-16T05:01:08;77746.63;;;-145.94;66.77
6208;BME280;3137;51.550;7.060;2023-05-16T05:03:34;77758.84;;;-145.94;66.71
6208;BME280;3137;51.550;7.060;2023-05-16T05:06:01;77760.91;;;-145.94;66.26
6208;BME280;3137;51.550;7.060;2023-05-16T05:08:28;77760.91;;;-145.94;65.97
6208;BME280;3137;51.550;7.060;2023-05-16T05:10:55;77773.13;;;-145.94;66.22
6208;BME280;3137;51.550;7.060;2023-05-16T05:13:21;77773.13;;;-145.94;66.05
6208;BME280;3137;51.550;7.060;2023-05-16T05:15:47;77758.84;;;-145.94;66.18
6208;BME280;3137;51.550;7.060;2023-05-16T05:18:15;77752.75;;;-145.94;66.42
6208;BME280;3137;51.550;7.060;2023-05-16T05:20:42;77750.69;;;-145.94;66.13
6208;BME280;3137;51.550;7.060;2023-05-16T05:23:08;77760.91;;;-145.94;65.90
6208;BME280;3137;51.550;7.060;2023-05-16T05:25:35;77754.78;;;-145.94;65.82
6208;BME280;3137;51.550;7.060;2023-05-16T05:28:03;77754.78;;;-145.94;66.04
6208;BME280;3137;51.550;7.060;2023-05-16T05:30:29;77748.66;;;-145.94;65.78
6208;BME280;3137;51.550;7.060;2023-05-16T05:32:56;77744.59;;;-145.94;65.77
6208;BME280;3137;51.550;7.060;2023-05-16T05:35:22;77750.69;;;-145.94;66.08
6208;BME280;3137;51.550;7.060;2023-05-16T05:37:49;77738.47;;;-145.94;66.08
6208;BME280;3137;51.550;7.060;2023-05-16T05:40:15;77732.34;;;-145.94;65.48
6208;BME280;3137;51.550;7.060;2023-05-16T05:42:42;77736.44;;;-145.94;65.76
6208;BME280;3137;51.550;7.060;2023-05-16T05:45:13;77728.25;;;-145.94;65.80
6208;BME280;3137;51.550;7.060;2023-05-16T05:47:39;77714.00;;;-145.94;65.61
6208;BME280;3137;51.550;7.060;2023-05-16T05:50:07;77705.81;;;-145.94;65.44
6208;BME280;3137;51.550;7.060;2023-05-16T05:52:34;77709.91;;;-145.94;65.30
6208;BME280;3137;51.550;7.060;2023-05-16T05:55:00;77703.78;;;-145.94;64.96
6208;BME280;3137;51.550;7.060;2023-05-16T05:57:27;77695.63;;;-145.94;64.51
6208;BME280;3137;51.550;7.060;2023-05-16T05:59:53;77693.59;;;-145.94;64.54
6208;BME280;3137;51.550;7.060;2023-05-16T06:02:19;77689.50;;;-145.94;64.59
6208;BME280;3137;51.550;7.060;2023-05-16T06:04:46;77687.47;;;-145.94;64.29
6208;BME280;3137;51.550;7.060;2023-05-16T06:07:12;77675.22;;;-145.94;64.17
6208;BME280;3137;51.550;7.060;2023-05-16T06:09:41;77671.16;;;-145.94;64.27
6208;BME280;3137;51.550;7.060;2023-05-16T06:12:08;77669.13;;;-145.94;64.08
6208;BME280;3137;51.550;7.060;2023-05-16T06:14:35;77658.91;;;-145.94;64.03
6208;BME280;3137;51.550;7.060;2023-05-16T06:17:01;77648.72;;;-145.94;63.09
6208;BME280;3137;51.550;7.060;2023-05-16T06:19:27;77642.59;;;-145.94;63.11
6208;BME280;3137;51.550;7.060;2023-05-16T06:21:54;77632.41;;;-145.94;62.94
6208;BME280;3137;51.550;7.060;2023-05-16T06:24:20;77630.38;;;-145.94;62.71
6208;BME280;3137;51.550;7.060;2023-05-16T06:26:47;77618.13;;;-145.94;62.71
6208;BME280;3137;51.550;7.060;2023-05-16T06:29:15;77612.00;;;-145.94;62.68
6208;BME280;3137;51.550;7.060;2023-05-16T06:31:43;77597.72;;;-145.94;62.33
6208;BME280;3137;51.550;7.060;2023-05-16T06:34:09;77591.63;;;-145.94;62.17
6208;BME280;3137;51.550;7.060;2023-05-16T06:36:36;77591.63;;;-145.94;61.53
6208;BME280;3137;51.550;7.060;2023-05-16T06:39:02;77571.22;;;-145.94;60.94
6208;BME280;3137;51.550;7.060;2023-05-16T06:41:30;77563.06;;;-145.94;60.38
6208;BME280;3137;51.550;7.060;2023-05-16T06:43:56;77561.03;;;-145.94;59.44
6208;BME280;3137;51.550;7.060;2023-05-16T06:46:23;77550.81;;;-145.94;59.18
6208;BME280;3137;51.550;7.060;2023-05-16T06:48:49;77550.81;;;-145.94;58.69
6208;BME280;3137;51.550;7.060;2023-05-16T06:51:16;77554.91;;;-145.94;57.98
6208;BME280;3137;51.550;7.060;2023-05-16T06:53:42;77544.69;;;-145.94;57.98
6208;BME280;3137;51.550;7.060;2023-05-16T06:56:08;77548.78;;;-145.94;57.25
6208;BME280;3137;51.550;7.060;2023-05-16T06:58:35;77538.59;;;-145.94;57.06
6208;BME280;3137;51.550;7.060;2023-05-16T07:01:01;77532.47;;;-145.94;57.55
6208;BME280;3137;51.550;7.060;2023-05-16T07:03:28;77536.53;;;-145.94;57.18
6208;BME280;3137;51.550;7.060;2023-05-16T07:05:55;77534.50;;;-145.94;57.39
6208;BME280;3137;51.550;7.060;2023-05-16T07:08:24;77524.31;;;-145.94;57.28
6208;BME280;3137;51.550;7.060;2023-05-16T07:10:51;77530.44;;;-145.94;56.08
6208;BME280;3137;51.550;7.060;2023-05-16T07:13:17;77528.38;;;-145.94;55.36
6208;BME280;3137;51.550;7.060;2023-05-16T07:15:46;77524.31;;;-145.94;55.75
6208;BME280;3137;51.550;7.060;2023-05-16T07:18:12;77516.16;;;-145.94;55.67
6208;BME280;3137;51.550;7.060;2023-05-16T07:20:39;77503.91;;;-145.94;54.96
6208;BME280;3137;51.550;7.060;2023-05-16T07:23:05;77499.84;;;-145.94;55.29
6208;BME280;3137;51.550;7.060;2023-05-16T07:25:32;77491.66;;;-145.94;54.25
6208;BME280;3137;51.550;7.060;2023-05-16T07:27:58;77493.72;;;-145.94;54.40
6208;BME280;3137;51.550;7.060;2023-05-16T07:30:26;77491.66;;;-145.94;54.22
6208;BME280;3137;51.550;7.060;2023-05-16T07:32:52;77489.63;;;-145.94;54.92
6208;BME280;3137;51.550;7.060;2023-05-16T07:35:19;77495.75;;;-145.94;53.04
6208;BME280;3137;51.550;7.060;2023-05-16T07:37:46;77489.63;;;-145.94;53.16
6208;BME280;3137;51.550;7.060;2023-05-16T07:40:12;77479.44;;;-145.94;53.88
6208;BME280;3137;51.550;7.060;2023-05-16T07:42:39;77473.31;;;-145.94;53.73
6208;BME280;3137;51.550;7.060;2023-05-16T07:45:06;77475.34;;;-145.94;52.65
6208;BME280;3137;51.550;7.060;2023-05-16T07:47:33;77452.91;;;-145.94;51.87
6208;BME280;3137;51.550;7.060;2023-05-16T07:49:59;77481.47;;;-145.94;50.66
6208;BME280;3137;51.550;7.060;2023-05-16T07:52:26;77461.09;;;-145.94;50.57
6208;BME280;3137;51.550;7.060;2023-05-16T07:54:52;77467.19;;;-145.94;49.40
6208;BME280;3137;51.550;7.060;2023-05-16T07:57:19;77459.03;;;-145.94;50.01
6208;BME280;3137;51.550;7.060;2023-05-16T07:59:48;77450.88;;;-145.94;49.82
6208;BME280;3137;51.550;7.060;2023-05-16T08:02:15;77444.75;;;-145.94;51.08
6208;BME280;3137;51.550;7.060;2023-05-16T08:04:42;77436.59;;;-145.94;50.90
6208;BME280;3137;51.550;7.060;2023-05-16T08:07:08;77430.50;;;-145.94;49.95
6208;BME280;3137;51.550;7.060;2023-05-16T08:09:35;77426.41;;;-145.94;49.18
6208;BME280;3137;51.550;7.060;2023-05-16T08:12:01;77420.28;;;-145.94;49.20
6208;BME280;3137;51.550;7.060;2023-05-16T08:14:30;77414.16;;;-145.94;49.83
6208;BME280;3137;51.550;7.060;2023-05-16T08:17:00;77412.13;;;-145.94;48.21
6208;BME280;3137;51.550;7.060;2023-05-16T08:19:26;77377.47;;;-145.94;51.24
6208;BME280;3137;51.550;7.060;2023-05-16T08:21:53;77395.81;;;-145.94;48.35
6208;BME280;3137;51.550;7.060;2023-05-16T08:24:20;77399.91;;;-145.94;48.62
6208;BME280;3137;51.550;7.060;2023-05-16T08:26:46;77401.94;;;-145.94;48.91
6208;BME280;3137;51.550;7.060;2023-05-16T08:29:12;77436.59;;;-145.94;46.90
6208;BME280;3137;51.550;7.060;2023-05-16T08:31:39;77469.25;;;-145.94;49.00
6208;BME280;3137;51.550;7.060;2023-05-16T08:34:06;77475.34;;;-145.94;49.36
6208;BME280;3137;51.550;7.060;2023-05-16T08:36:36;77491.66;;;-145.94;49.02
6208;BME280;3137;51.550;7.060;2023-05-16T08:39:03;77487.59;;;-145.94;48.57
6208;BME280;3137;51.550;7.060;2023-05-16T08:41:30;77475.34;;;-145.94;48.17
6208;BME280;3137;51.550;7.060;2023-05-16T08:43:56;77485.56;;;-145.94;49.93
6208;BME280;3137;51.550;7.060;2023-05-16T08:46:24;77475.34;;;-145.94;50.44
6208;BME280;3137;51.550;7.060;2023-05-16T08:48:52;77481.47;;;-145.94;49.15
6208;BME280;3137;51.550;7.060;2023-05-16T08:51:19;77487.59;;;-145.94;48.37
6208;BME280;3137;51.550;7.060;2023-05-16T08:54:15;77501.88;;;-145.94;49.88
6208;BME280;3137;51.550;7.060;2023-05-16T08:56:43;77491.66;;;-145.94;49.35
6208;BME280;3137;51.550;7.060;2023-05-16T08:59:10;77471.28;;;-145.94;48.66
6208;BME280;3137;51.550;7.060;2023-05-16T09:01:40;77442.72;;;-145.94;48.33
6208;BME280;3137;51.550;7.060;2023-05-16T09:04:07;77434.56;;;-145.94;47.57
6208;BME280;3137;51.550;7.060;2023-05-16T09:06:35;77430.50;;;-145.94;47.40
6208;BME280;3137;51.550;7.060;2023-05-16T09:09:02;77410.09;;;-145.94;49.15
6208;BME280;3137;51.550;7.060;2023-05-16T09:11:29;77399.91;;;-145.94;48.23
6208;BME280;3137;51.550;7.060;2023-05-16T09:14:01;77389.69;;;-145.94;48.19
6208;BME280;3137;51.550;7.060;2023-05-16T09:16:28;77381.53;;;-145.94;49.16
6208;BME280;3137;51.550;7.060;2023-05-16T09:18:59;77381.53;;;-145.94;47.67
6208;BME280;3137;51.550;7.060;2023-05-16T09:21:32;77344.84;;;-145.94;50.23
6208;BME280;3137;51.550;7.060;2023-05-16T09:24:03;77359.09;;;-145.94;46.40
6208;BME280;3137;51.550;7.060;2023-05-16T09:26:31;77350.94;;;-145.94;48.66
6208;BME280;3137;51.550;7.060;2023-05-16T09:28:58;77385.63;;;-145.94;48.08
6208;BME280;3137;51.550;7.060;2023-05-16T09:31:26;77426.41;;;-145.94;50.11
6208;BME280;3137;51.550;7.060;2023-05-16T09:33:55;77459.03;;;-145.94;48.84
6208;BME280;3137;51.550;7.060;2023-05-16T09:36:21;77459.03;;;-145.94;50.55
6208;BME280;3137;51.550;7.060;2023-05-16T09:38:50;77436.59;;;-145.94;49.52
6208;BME280;3137;51.550;7.060;2023-05-16T09:41:17;77412.13;;;-145.94;49.51
6208;BME280;3137;51.550;7.060;2023-05-16T09:43:43;77391.75;;;-145.94;47.27
6208;BME280;3137;51.550;7.060;2023-05-16T09:46:13;77381.53;;;-145.94;46.77
6208;BME280;3137;51.550;7.060;2023-05-16T09:48:46;77346.88;;;-145.94;45.54
6208;BME280;3137;51.550;7.060;2023-05-16T09:51:13;77322.41;;;-145.94;48.37
6208;BME280;3137;51.550;7.060;2023-05-16T09:53:40;77328.50;;;-145.94;46.49
6208;BME280;3137;51.550;7.060;2023-05-16T09:56:11;77320.34;;;-145.94;47.26
6208;BME280;3137;51.550;7.060;2023-05-16T09:58:39;77324.44;;;-145.94;46.12
6208;BME280;3137;51.550;7.060;2023-05-16T10:01:07;77312.19;;;-145.94;47.71
6208;BME280;3137;51.550;7.060;2023-05-16T10:03:35;77322.41;;;-145.94;46.35
6208;BME280;3137;51.550;7.060;2023-05-16T10:06:03;77320.34;;;-145.94;48.64
6208;BME280;3137;51.550;7.060;2023-05-16T10:08:32;77338.72;;;-145.94;46.05
6208;BME280;3137;51.550;7.060;2023-05-16T10:11:03;77338.72;;;-145.94;46.76
6208;BME280;3137;51.550;7.060;2023-05-16T10:13:32;77326.47;;;-145.94;47.89
6208;BME280;3137;51.550;7.060;2023-05-16T10:16:09;77314.25;;;-145.94;46.19
6208;BME280;3137;51.550;7.060;2023-05-16T10:18:37;77308.13;;;-145.94;46.85
6208;BME280;3137;51.550;7.060;2023-05-16T10:21:07;77287.72;;;-145.94;46.93
6208;BME280;3137;51.550;7.060;2023-05-16T10:23:40;77297.94;;;-145.94;46.42
6208;BME280;3137;51.550;7.060;2023-05-16T10:26:08;77299.97;;;-145.94;47.67
6208;BME280;3137;51.550;7.060;2023-05-16T10:28:35;77328.50;;;-145.94;47.62
6208;BME280;3137;51.550;7.060;2023-05-16T10:31:01;77326.47;;;-145.94;48.76
6208;BME280;3137;51.550;7.060;2023-05-16T10:33:28;77332.59;;;-145.94;49.61
6208;BME280;3137;51.550;7.060;2023-05-16T10:35:55;77344.84;;;-145.94;47.88
6208;BME280;3137;51.550;7.060;2023-05-16T10:38:22;77314.25;;;-145.94;49.26
6208;BME280;3137;51.550;7.060;2023-05-16T10:40:50;77304.03;;;-145.94;47.99
6208;BME280;3137;51.550;7.060;2023-05-16T10:43:26;77285.69;;;-145.94;48.07
6208;BME280;3137;51.550;7.060;2023-05-16T10:45:57;77293.84;;;-145.94;48.57
6208;BME280;3137;51.550;7.060;2023-05-16T10:48:37;77269.38;;;-145.94;50.40
6208;BME280;3137;51.550;7.060;2023-05-16T10:51:37;77259.19;;;-145.94;48.15
6208;BME280;3137;51.550;7.060;2023-05-16T10:54:08;77273.44;;;-145.94;47.24
6208;BME280;3137;51.550;7.060;2023-05-16T10:56:36;77248.97;;;-145.94;47.84
6208;BME280;3137;51.550;7.060;2023-05-16T10:59:03;77244.91;;;-145.94;46.34
6208;BME280;3137;51.550;7.060;2023-05-16T11:01:33;77224.50;;;-145.94;47.17
6208;BME280;3137;51.550;7.060;2023-05-16T11:04:07;77228.59;;;-145.94;46.08
6208;BME280;3137;51.550;7.060;2023-05-16T11:11:43;77208.19;;;-145.94;48.70
6208;BME280;3137;51.550;7.060;2023-05-16T11:17:09;77212.28;;;-145.94;46.64
6208;BME280;3137;51.550;7.060;2023-05-16T11:25:01;77273.44;;;-145.94;45.81
6208;BME280;3137;51.550;7.060;2023-05-16T11:27:32;77279.56;;;-145.94;46.25
6208;BME280;3137;51.550;7.060;2023-05-16T11:32:41;77279.56;;;-145.94;48.52
6208;BME280;3137;51.550;7.060;2023-05-16T11:35:11;77263.25;;;-145.94;49.06
6208;BME280;3137;51.550;7.060;2023-05-16T11:37:41;77275.50;;;-145.94;47.86
6208;BME280;3137;51.550;7.060;2023-05-16T11:40:10;77271.41;;;-145.94;48.45
6208;BME280;3137;51.550;7.060;2023-05-16T11:42:38;77279.56;;;-145.94;48.26
6208;BME280;3137;51.550;7.060;2023-05-16T11:45:16;77263.25;;;-145.94;49.17
6208;BME280;3137;51.550;7.060;2023-05-16T11:47:46;77230.63;;;-145.94;49.31
6208;BME280;3137;51.550;7.060;2023-05-16T11:50:16;77226.53;;;-145.94;48.02
6208;BME280;3137;51.550;7.060;2023-05-16T11:52:44;77189.84;;;-145.94;48.77
6208;BME280;3137;51.550;7.060;2023-05-16T11:55:12;77173.53;;;-145.94;47.52
6208;BME280;3137;51.550;7.060;2023-05-16T11:57:50;77167.41;;;-145.94;47.00
6208;BME280;3137;51.550;7.060;2023-05-16T12:00:21;77140.91;;;-145.94;47.59
6208;BME280;3137;51.550;7.060;2023-05-16T12:02:50;77149.06;;;-145.94;46.07
6208;BME280;3137;51.550;7.060;2023-05-16T12:05:18;77140.91;;;-145.94;47.15
6208;BME280;3137;51.550;7.060;2023-05-16T12:07:46;77124.56;;;-145.94;46.13
6208;BME280;3137;51.550;7.060;2023-05-16T12:10:14;77122.53;;;-145.94;44.30
6208;BME280;3137;51.550;7.060;2023-05-16T12:12:43;77140.91;;;-145.94;44.01
6208;BME280;3137;51.550;7.060;2023-05-16T12:15:11;77153.13;;;-145.94;44.94
6208;BME280;3137;51.550;7.060;2023-05-16T12:17:39;77167.41;;;-145.94;44.20
6208;BME280;3137;51.550;7.060;2023-05-16T12:20:08;77193.91;;;-145.94;45.07
6208;BME280;3137;51.550;7.060;2023-05-16T12:22:40;77189.84;;;-145.94;46.19
6208;BME280;3137;51.550;7.060;2023-05-16T12:25:29;77151.09;;;-145.94;46.92
6208;BME280;3137;51.550;7.060;2023-05-16T12:27:58;77138.84;;;-145.94;46.12
6208;BME280;3137;51.550;7.060;2023-05-16T12:30:28;77110.31;;;-145.94;48.19
6208;BME280;3137;51.550;7.060;2023-05-16T12:32:55;77106.22;;;-145.94;43.34
6208;BME280;3137;51.550;7.060;2023-05-16T12:35:24;77108.25;;;-145.94;44.58
6208;BME280;3137;51.550;7.060;2023-05-16T12:37:51;77124.56;;;-145.94;43.44
6208;BME280;3137;51.550;7.060;2023-05-16T12:40:18;77136.81;;;-145.94;45.27
6208;BME280;3137;51.550;7.060;2023-05-16T12:42:54;77159.25;;;-145.94;44.20
6208;BME280;3137;51.550;7.060;2023-05-16T12:45:21;77163.31;;;-145.94;45.00
6208;BME280;3137;51.550;7.060;2023-05-16T12:47:48;77169.44;;;-145.94;45.23
6208;BME280;3137;51.550;7.060;2023-05-16T12:50:15;77153.13;;;-145.94;46.28
6208;BME280;3137;51.550;7.060;2023-05-16T12:52:49;77138.84;;;-145.94;45.61
6208;BME280;3137;51.550;7.060;2023-05-16T12:55:16;77126.63;;;-145.94;43.33
6208;BME280;3137;51.550;7.060;2023-05-16T12:57:44;77094.00;;;-145.94;42.56
6208;BME280;3137;51.550;7.060;2023-05-16T13:00:14;77098.06;;;-145.94;41.12
6208;BME280;3137;51.550;7.060;2023-05-16T13:02:41;77102.16;;;-145.94;41.18
6208;BME280;3137;51.550;7.060;2023-05-16T13:05:07;77075.63;;;-145.94;42.62
6208;BME280;3137;51.550;7.060;2023-05-16T13:07:36;77075.63;;;-145.94;41.61
6208;BME280;3137;51.550;7.060;2023-05-16T13:10:02;77075.63;;;-145.94;41.70
6208;BME280;3137;51.550;7.060;2023-05-16T13:12:29;77045.03;;;-145.94;42.03
6208;BME280;3137;51.550;7.060;2023-05-16T13:14:56;77040.97;;;-145.94;40.15
6208;BME280;3137;51.550;7.060;2023-05-16T13:17:22;77051.16;;;-145.94;41.12
6208;BME280;3137;51.550;7.060;2023-05-16T13:19:49;77043.00;;;-145.94;42.38
6208;BME280;3137;51.550;7.060;2023-05-16T13:22:16;77091.94;;;-145.94;40.93
6208;BME280;3137;51.550;7.060;2023-05-16T13:24:43;77120.50;;;-145.94;40.69